Time;durP1;ratioP1;P1;durP2;ratioP2;P2;SDS_P1;SDS_P2;PMS_P1;PMS_P2;Temp;Humidity;BMP_temperature;BMP_pressure;BME280_temperature;BME280_humidity;BME280_pressure;Samples;Min_cycle;Max_cycle;Signal;HPM_P1;HPM_P2
2021/01/22 00:01:59;;;;;;;18.27;10.43;;;1.90;90.70;;;;;;4966809;28;20190;-72
2021/01/22 00:04:26;;;;;;;24.40;13.13;;;2.00;90.40;;;;;;4966992;28;20182;-71
2021/01/22 00:06:53;;;;;;;36.50;18.40;;;2.10;90.10;;;;;;4966834;28;20206;-72
2021/01/22 00:09:18;;;;;;;33.47;18.00;;;2.10;90.20;;;;;;4965038;28;20182;-71
2021/01/22 00:11:44;;;;;;;40.70;18.77;;;2.10;89.70;;;;;;4967007;28;20796;-72
2021/01/22 00:14:10;;;;;;;27.33;15.63;;;2.10;89.40;;;;;;4966827;28;20678;-72
2021/01/22 00:16:36;;;;;;;33.93;18.70;;;2.10;90.10;;;;;;4966723;28;20666;-72
2021/01/22 00:19:01;;;;;;;37.40;19.40;;;2.00;90.20;;;;;;4965506;28;20940;-72
2021/01/22 00:21:27;;;;;;;40.50;17.80;;;2.00;89.90;;;;;;4966336;28;20261;-71
2021/01/22 00:23:53;;;;;;;32.73;17.33;;;2.00;90.20;;;;;;4942672;28;20186;-71
2021/01/22 00:26:18;;;;;;;34.37;17.23;;;2.00;90.10;;;;;;4965438;28;20237;-71
2021/01/22 00:28:44;;;;;;;36.77;18.67;;;2.00;90.00;;;;;;4966098;28;20190;-71
2021/01/22 00:31:10;;;;;;;35.23;17.80;;;2.00;90.30;;;;;;4966545;28;20186;-71
2021/01/22 00:33:35;;;;;;;28.83;16.00;;;2.00;90.50;;;;;;4966461;28;20669;-71
2021/01/22 00:36:01;;;;;;;24.50;14.93;;;1.90;90.40;;;;;;4965307;28;20277;-71
2021/01/22 00:38:27;;;;;;;30.10;16.97;;;2.00;90.40;;;;;;4957777;28;20210;-71
2021/01/22 00:40:52;;;;;;;30.83;14.90;;;1.90;90.80;;;;;;4965897;28;20313;-71
2021/01/22 00:43:18;;;;;;;23.33;12.80;;;1.90;90.50;;;;;;4966623;28;20968;-71
2021/01/22 00:45:44;;;;;;;35.77;15.97;;;1.90;90.40;;;;;;4966768;28;20178;-71
2021/01/22 00:48:10;;;;;;;31.73;15.50;;;1.90;90.40;;;;;;4966466;28;20746;-71
2021/01/22 00:50:35;;;;;;;27.03;15.60;;;1.90;90.40;;;;;;4965708;28;20554;-71
2021/01/22 00:53:02;;;;;;;32.00;15.53;;;1.90;90.10;;;;;;4965130;28;20571;-71
2021/01/22 00:55:28;;;;;;;32.00;15.80;;;1.90;90.40;;;;;;4964585;28;20183;-71
2021/01/22 00:57:53;;;;;;;39.47;17.40;;;2.00;90.20;;;;;;4966088;28;20683;-71
2021/01/22 01:00:20;;;;;;;32.37;16.67;;;1.90;90.10;;;;;;4965786;28;20644;-71
2021/01/22 01:02:45;;;;;;;32.93;15.87;;;1.90;90.70;;;;;;4965987;28;20193;-71
2021/01/22 01:05:11;;;;;;;40.40;16.60;;;1.80;90.50;;;;;;4964270;28;20190;-71
2021/01/22 01:07:37;;;;;;;30.00;15.27;;;1.80;90.40;;;;;;4962695;28;20374;-71
2021/01/22 01:10:04;;;;;;;34.17;16.70;;;1.80;90.40;;;;;;4962284;28;20193;-71
2021/01/22 01:12:30;;;;;;;39.23;16.13;;;1.70;91.00;;;;;;4965239;28;20210;-72
2021/01/22 01:14:56;;;;;;;33.47;15.17;;;1.80;90.70;;;;;;4964720;28;20632;-71
2021/01/22 01:17:21;;;;;;;41.03;16.10;;;1.80;90.70;;;;;;4949262;28;20285;-71
2021/01/22 01:19:47;;;;;;;38.37;15.73;;;1.80;90.90;;;;;;4965397;28;20178;-71
2021/01/22 01:22:13;;;;;;;31.33;13.87;;;1.80;90.80;;;;;;4962607;28;20558;-71
2021/01/22 01:24:39;;;;;;;30.50;14.93;;;1.90;90.70;;;;;;4938438;28;20190;-71
2021/01/22 01:27:04;;;;;;;44.90;19.40;;;1.80;90.40;;;;;;4966137;28;20202;-71
2021/01/22 01:29:30;;;;;;;45.70;19.17;;;1.90;90.50;;;;;;4966071;28;20566;-71
2021/01/22 01:31:56;;;;;;;27.73;16.43;;;1.90;90.30;;;;;;4968560;28;20277;-71
2021/01/22 01:34:22;;;;;;;40.23;17.97;;;1.90;90.40;;;;;;4970029;28;20179;-71
2021/01/22 01:36:47;;;;;;;40.40;17.83;;;1.90;90.40;;;;;;4949445;28;20187;-71
2021/01/22 01:39:13;;;;;;;45.00;21.67;;;1.80;90.50;;;;;;4969996;28;20240;-71
2021/01/22 01:41:39;;;;;;;34.17;19.40;;;1.80;90.70;;;;;;4967841;28;20206;-71
2021/01/22 01:44:05;;;;;;;79.37;35.33;;;1.80;90.80;;;;;;4969530;28;20266;-71
2021/01/22 01:46:30;;;;;;;77.17;40.47;;;1.70;90.80;;;;;;4969532;28;20218;-71
2021/01/22 01:48:57;;;;;;;67.07;32.00;;;1.70;90.80;;;;;;4969256;28;20178;-71
2021/01/22 01:51:23;;;;;;;61.57;26.20;;;1.70;90.70;;;;;;4966021;28;20248;-71
2021/01/22 01:53:48;;;;;;;59.70;29.33;;;1.70;90.90;;;;;;4969059;28;20561;-71
2021/01/22 01:56:15;;;;;;;48.27;23.87;;;1.70;91.30;;;;;;4969540;28;20655;-71
2021/01/22 01:58:40;;;;;;;77.03;36.57;;;1.70;91.20;;;;;;4951721;28;20940;-71
2021/01/22 02:01:08;;;;;;;50.73;24.97;;;1.80;91.30;;;;;;4968945;28;20201;-71
2021/01/22 02:03:34;;;;;;;37.07;18.00;;;1.80;91.40;;;;;;4969674;28;21016;-71
2021/01/22 02:06:00;;;;;;;36.50;20.57;;;1.80;91.30;;;;;;4961634;28;20232;-71
2021/01/22 02:08:26;;;;;;;30.00;18.20;;;1.80;91.00;;;;;;4950668;28;20664;-71
2021/01/22 02:10:53;;;;;;;28.60;15.77;;;1.80;91.10;;;;;;4969762;28;20275;-71
2021/01/22 02:13:20;;;;;;;63.80;29.00;;;1.80;90.90;;;;;;4968993;28;20214;-70
2021/01/22 02:15:46;;;;;;;90.50;37.27;;;1.80;91.00;;;;;;4952063;28;20182;-71
2021/01/22 02:18:13;;;;;;;60.13;28.83;;;1.80;91.00;;;;;;4968897;28;20577;-71
2021/01/22 02:20:46;;;;;;;58.30;25.70;;;1.80;90.70;;;;;;4962405;28;20189;-71
2021/01/22 02:23:15;;;;;;;57.23;22.37;;;1.80;91.10;;;;;;4956742;28;20181;-71
2021/01/22 02:25:42;;;;;;;37.43;18.70;;;1.90;91.10;;;;;;4968096;28;20194;-71
2021/01/22 02:28:13;;;;;;;32.23;16.83;;;1.90;90.80;;;;;;4968833;28;20186;-71
2021/01/22 02:30:47;;;;;;;33.40;15.37;;;1.90;90.80;;;;;;4969515;28;20245;-71
2021/01/22 02:33:16;;;;;;;27.70;14.87;;;1.90;90.90;;;;;;4969704;28;20170;-71
2021/01/22 02:35:42;;;;;;;41.13;20.53;;;1.90;90.70;;;;;;4969496;28;20198;-71
2021/01/22 02:38:10;;;;;;;41.50;22.53;;;2.00;90.30;;;;;;4969052;28;20209;-71
2021/01/22 02:40:43;;;;;;;41.10;22.50;;;1.90;90.10;;;;;;4955115;28;20648;-72
2021/01/22 02:43:10;;;;;;;35.40;19.43;;;1.90;89.90;;;;;;4968797;28;20245;-71
2021/01/22 02:45:36;;;;;;;38.97;20.43;;;1.80;90.20;;;;;;4968887;28;20179;-71
2021/01/22 02:48:02;;;;;;;44.00;19.83;;;1.80;90.30;;;;;;4968305;28;20187;-71
2021/01/22 02:50:36;;;;;;;39.13;20.40;;;1.80;90.30;;;;;;4967132;28;20187;-71
2021/01/22 02:53:06;;;;;;;38.97;20.97;;;1.80;90.10;;;;;;4968301;28;20186;-71
2021/01/22 02:55:34;;;;;;;38.13;20.00;;;1.80;90.50;;;;;;4967741;28;20241;-71
2021/01/22 02:58:16;;;;;;;38.87;19.30;;;1.80;90.40;;;;;;4966212;28;20187;-71
2021/01/22 03:00:49;;;;;;;47.00;19.83;;;1.70;90.70;;;;;;4950931;28;20269;-71
2021/01/22 03:03:37;;;;;;;40.67;18.97;;;1.80;91.00;;;;;;4968796;28;20175;-71
2021/01/22 03:06:05;;;;;;;35.07;17.67;;;1.70;90.80;;;;;;4967098;28;20565;-71
2021/01/22 03:08:34;;;;;;;38.70;19.80;;;1.70;90.80;;;;;;4968237;28;20186;-72
2021/01/22 03:11:01;;;;;;;32.77;18.37;;;1.70;91.20;;;;;;4965761;28;20249;-71
2021/01/22 03:13:27;;;;;;;37.73;16.97;;;1.70;91.10;;;;;;4965720;28;20236;-71
2021/01/22 03:15:54;;;;;;;32.80;16.23;;;1.60;91.00;;;;;;4967460;28;20189;-72
2021/01/22 03:18:20;;;;;;;29.97;16.37;;;1.60;91.20;;;;;;4967217;28;20182;-72
2021/01/22 03:20:48;;;;;;;29.03;15.93;;;1.60;91.20;;;;;;4968254;28;20193;-72
2021/01/22 03:23:17;;;;;;;39.27;18.30;;;1.60;91.20;;;;;;4950137;28;20241;-71
2021/01/22 03:25:43;;;;;;;30.00;16.03;;;1.60;91.10;;;;;;4967497;28;20281;-72
2021/01/22 03:28:10;;;;;;;30.67;16.37;;;1.60;91.00;;;;;;4965057;28;20380;-71
2021/01/22 03:30:36;;;;;;;35.60;18.63;;;1.60;90.80;;;;;;4959713;28;20280;-72
2021/01/22 03:33:03;;;;;;;35.03;16.20;;;1.60;90.80;;;;;;4966639;28;20178;-72
2021/01/22 03:35:30;;;;;;;33.80;16.27;;;1.60;91.00;;;;;;4965051;28;20190;-71
2021/01/22 03:37:56;;;;;;;26.47;15.33;;;1.50;91.00;;;;;;4967254;28;20261;-72
2021/01/22 03:40:26;;;;;;;30.20;13.93;;;1.50;91.20;;;;;;4967424;28;20559;-71
2021/01/22 03:42:52;;;;;;;32.50;17.00;;;1.50;91.30;;;;;;4967005;28;20638;-71
2021/01/22 03:45:18;;;;;;;28.97;14.40;;;1.50;91.40;;;;;;4967039;28;20273;-71
2021/01/22 03:47:44;;;;;;;32.90;16.17;;;1.50;91.30;;;;;;4953515;28;20205;-71
2021/01/22 03:50:10;;;;;;;30.50;15.33;;;1.50;91.30;;;;;;4966876;28;20193;-72
2021/01/22 03:52:37;;;;;;;21.20;14.17;;;1.40;91.10;;;;;;4966979;28;20702;-72
2021/01/22 03:55:04;;;;;;;42.27;15.97;;;1.50;91.40;;;;;;4966118;28;20179;-73
2021/01/22 03:57:30;;;;;;;26.57;15.00;;;1.50;91.40;;;;;;4966850;28;20190;-71
2021/01/22 03:59:55;;;;;;;27.73;14.70;;;1.40;91.60;;;;;;4966977;28;20186;-71
2021/01/22 04:02:21;;;;;;;24.33;12.97;;;1.40;91.60;;;;;;4966100;28;20182;-71
2021/01/22 04:04:47;;;;;;;27.30;12.80;;;1.40;91.80;;;;;;4965645;28;20186;-71
2021/01/22 04:07:13;;;;;;;23.13;11.63;;;1.40;91.90;;;;;;4966623;28;20651;-71
2021/01/22 04:09:39;;;;;;;25.73;10.77;;;1.40;92.00;;;;;;4966754;28;20240;-72
2021/01/22 04:12:05;;;;;;;20.00;11.80;;;1.50;92.30;;;;;;4967381;28;20569;-71
2021/01/22 04:14:30;;;;;;;23.60;11.70;;;1.50;91.80;;;;;;4966142;28;20214;-71
2021/01/22 04:16:57;;;;;;;23.73;12.17;;;1.50;92.00;;;;;;4966938;28;20233;-71
2021/01/22 04:19:24;;;;;;;17.97;11.57;;;1.60;92.00;;;;;;4966886;28;20593;-71
2021/01/22 04:21:50;;;;;;;29.87;12.63;;;1.60;92.00;;;;;;4966241;28;20197;-71
2021/01/22 04:24:16;;;;;;;24.27;13.23;;;1.60;92.00;;;;;;4965192;28;20186;-71
2021/01/22 04:26:44;;;;;;;23.07;13.37;;;1.60;91.80;;;;;;4966652;28;20224;-71
2021/01/22 04:29:10;;;;;;;18.40;10.23;;;1.60;91.60;;;;;;4966773;28;20325;-71
2021/01/22 04:31:36;;;;;;;21.57;12.57;;;1.50;91.80;;;;;;4961583;28;20241;-71
2021/01/22 04:34:02;;;;;;;18.87;10.83;;;1.50;91.80;;;;;;4951101;28;20194;-71
2021/01/22 04:36:28;;;;;;;20.27;11.33;;;1.50;91.50;;;;;;4966524;28;20197;-71
2021/01/22 04:38:53;;;;;;;17.13;10.23;;;1.50;91.50;;;;;;4966648;28;20205;-72
2021/01/22 04:41:19;;;;;;;21.80;12.37;;;1.50;91.70;;;;;;4965189;28;20194;-72
2021/01/22 04:43:45;;;;;;;27.40;14.67;;;1.50;91.60;;;;;;4966823;28;20186;-71
2021/01/22 04:46:16;;;;;;;24.57;11.93;;;1.50;92.00;;;;;;4965273;28;20210;-71
2021/01/22 04:48:42;;;;;;;30.03;12.97;;;1.40;92.20;;;;;;4948621;28;20237;-71
2021/01/22 04:51:09;;;;;;;21.67;11.47;;;1.40;92.50;;;;;;4965139;28;20217;-71
2021/01/22 04:53:37;;;;;;;21.10;12.43;;;1.40;92.70;;;;;;4966237;28;20628;-72
2021/01/22 04:56:05;;;;;;;24.57;12.80;;;1.40;92.80;;;;;;4966198;28;20265;-72
2021/01/22 04:58:33;;;;;;;20.50;10.90;;;1.40;92.80;;;;;;4936849;28;20202;-72
2021/01/22 05:01:01;;;;;;;27.17;11.40;;;1.40;92.90;;;;;;4953616;28;20263;-72
2021/01/22 05:03:26;;;;;;;23.73;10.07;;;1.40;92.70;;;;;;4948837;28;20674;-72
2021/01/22 05:05:59;;;;;;;18.47;9.93;;;1.40;92.50;;;;;;4965576;28;20191;-71
2021/01/22 05:08:25;;;;;;;21.67;10.63;;;1.40;92.80;;;;;;4969012;28;20190;-72
2021/01/22 05:10:51;;;;;;;20.93;10.07;;;1.40;92.50;;;;;;4970375;28;20179;-71
2021/01/22 05:13:17;;;;;;;13.60;8.90;;;1.40;92.60;;;;;;4969395;28;20563;-71
2021/01/22 05:16:03;;;;;;;25.10;10.87;;;1.40;92.70;;;;;;4968992;28;21009;-71
2021/01/22 05:18:31;;;;;;;15.60;9.73;;;1.50;92.60;;;;;;4962827;28;20833;-71
2021/01/22 05:21:08;;;;;;;19.90;9.40;;;1.50;92.50;;;;;;4952244;28;20182;-72
2021/01/22 05:23:37;;;;;;;18.73;10.87;;;1.50;92.40;;;;;;4970028;28;20180;-71
2021/01/22 05:26:06;;;;;;;25.13;12.00;;;1.50;92.40;;;;;;4969951;28;20265;-73
2021/01/22 05:28:40;;;;;;;20.67;11.57;;;1.50;92.30;;;;;;4952400;28;20198;-71
2021/01/22 05:31:13;;;;;;;19.67;9.43;;;1.40;92.20;;;;;;4950594;28;20737;-71
2021/01/22 05:33:41;;;;;;;17.27;9.17;;;1.50;92.30;;;;;;4962630;28;20179;-71
2021/01/22 05:36:25;;;;;;;18.07;10.20;;;1.50;92.60;;;;;;4967961;28;20592;-72
2021/01/22 05:38:52;;;;;;;14.67;9.57;;;1.50;92.50;;;;;;4967422;28;20217;-71
2021/01/22 05:41:18;;;;;;;15.07;10.50;;;1.50;92.60;;;;;;4969074;28;20183;-72
2021/01/22 05:43:44;;;;;;;15.40;9.03;;;1.50;92.50;;;;;;4964624;28;20202;-72
2021/01/22 05:46:16;;;;;;;20.63;10.47;;;1.50;92.50;;;;;;4964868;28;20209;-72
2021/01/22 05:48:43;;;;;;;15.43;8.63;;;1.40;92.50;;;;;;4955399;28;20652;-72
2021/01/22 05:51:09;;;;;;;19.40;10.00;;;1.50;93.10;;;;;;4968147;28;20194;-72
2021/01/22 05:53:47;;;;;;;12.53;9.50;;;1.50;92.80;;;;;;4961567;28;20186;-72
2021/01/22 05:56:14;;;;;;;16.00;9.33;;;1.40;92.80;;;;;;4959377;28;20181;-72
2021/01/22 05:58:45;;;;;;;16.80;10.30;;;1.50;92.90;;;;;;4969157;28;20542;-71
2021/01/22 06:01:18;;;;;;;21.07;12.70;;;1.50;92.60;;;;;;4962542;28;20202;-71
2021/01/22 06:03:49;;;;;;;26.10;12.97;;;1.40;92.70;;;;;;4952629;28;20264;-71
2021/01/22 06:06:15;;;;;;;21.17;12.77;;;1.50;92.80;;;;;;4957135;28;20790;-71
2021/01/22 06:08:59;;;;;;;17.30;11.17;;;1.50;92.90;;;;;;4964825;28;20221;-71
2021/01/22 06:11:26;;;;;;;22.20;12.43;;;1.50;92.80;;;;;;4951636;28;20726;-71
2021/01/22 06:13:55;;;;;;;18.40;11.53;;;1.60;92.80;;;;;;4965681;28;20186;-72
2021/01/22 06:16:23;;;;;;;16.80;10.70;;;1.60;92.80;;;;;;4963401;28;20186;-71
2021/01/22 06:18:51;;;;;;;20.37;11.27;;;1.70;92.90;;;;;;4966820;28;21022;-72
2021/01/22 06:21:27;;;;;;;20.50;10.50;;;1.70;92.80;;;;;;4964192;28;20638;-72
2021/01/22 06:23:54;;;;;;;17.37;10.87;;;1.80;92.90;;;;;;4960205;28;20557;-74
2021/01/22 06:26:20;;;;;;;24.17;12.83;;;1.80;92.60;;;;;;4962794;28;20285;-73
2021/01/22 06:28:49;;;;;;;20.63;11.27;;;1.80;92.50;;;;;;4967748;28;20686;-75
2021/01/22 06:31:19;;;;;;;23.33;13.43;;;1.90;92.50;;;;;;4958515;28;20166;-74
2021/01/22 06:33:47;;;;;;;21.00;12.53;;;1.90;92.60;;;;;;4965152;28;20174;-73
2021/01/22 06:36:13;;;;;;;27.50;14.00;;;2.00;92.30;;;;;;4966714;28;20301;-73
2021/01/22 06:38:40;;;;;;;24.60;14.90;;;2.00;92.40;;;;;;4945028;28;20254;-73
2021/01/22 06:41:10;;;;;;;28.57;15.67;;;2.10;92.20;;;;;;4949735;29;20261;-75
2021/01/22 06:43:39;;;;;;;32.23;16.43;;;2.10;92.20;;;;;;4962430;28;20191;-74
2021/01/22 06:46:11;;;;;;;32.03;16.47;;;2.20;92.00;;;;;;4938505;28;20194;-72
2021/01/22 06:48:50;;;;;;;35.23;18.43;;;2.30;92.00;;;;;;4968389;28;20186;-72
2021/01/22 06:51:16;;;;;;;35.73;18.37;;;2.20;91.90;;;;;;4955868;28;20940;-77
2021/01/22 06:54:10;;;;;;;38.40;18.33;;;2.30;91.80;;;;;;4950416;28;20214;-78
2021/01/22 06:56:54;;;;;;;22.47;14.57;;;2.40;91.90;;;;;;4949997;29;20183;-77
2021/01/22 06:59:29;;;;;;;31.37;15.50;;;2.30;91.80;;;;;;4950766;29;20174;-77
2021/01/22 07:01:55;;;;;;;21.47;13.87;;;2.50;91.90;;;;;;4950577;29;20205;-75
2021/01/22 07:04:33;;;;;;;24.97;14.50;;;2.60;91.60;;;;;;4948508;29;20187;-77
2021/01/22 07:07:01;;;;;;;27.57;15.20;;;2.70;91.40;;;;;;4949748;29;20286;-75
2021/01/22 07:09:46;;;;;;;26.47;16.50;;;2.80;91.40;;;;;;4967002;28;20190;-78
2021/01/22 07:12:17;;;;;;;33.43;17.40;;;2.90;91.20;;;;;;4968571;28;20174;-76
2021/01/22 07:14:43;;;;;;;32.77;17.73;;;3.00;91.00;;;;;;4965951;28;20293;-77
2021/01/22 07:17:17;;;;;;;32.40;19.17;;;3.20;90.90;;;;;;4940024;28;20699;-74
2021/01/22 07:20:04;;;;;;;40.20;19.77;;;3.30;90.60;;;;;;4950747;28;20182;-74
2021/01/22 07:22:31;;;;;;;39.13;20.90;;;3.50;90.20;;;;;;4952570;28;20195;-75
2021/01/22 07:24:59;;;;;;;47.73;24.00;;;3.60;90.30;;;;;;4956592;28;20678;-75
2021/01/22 07:27:46;;;;;;;51.23;25.67;;;3.70;90.10;;;;;;4949585;28;20304;-75
2021/01/22 07:30:13;;;;;;;48.03;25.73;;;3.80;89.50;;;;;;4948586;28;20209;-75
2021/01/22 07:32:44;;;;;;;60.97;29.17;;;3.80;89.20;;;;;;4950997;28;20174;-75
2021/01/22 07:35:24;;;;;;;60.23;30.63;;;3.90;89.30;;;;;;4947791;28;20281;-74
2021/01/22 07:37:51;;;;;;;66.60;32.57;;;3.90;88.60;;;;;;4957773;28;20946;-79
2021/01/22 07:40:18;;;;;;;67.73;33.17;;;3.90;88.30;;;;;;4967437;28;20193;-78
2021/01/22 07:42:44;;;;;;;70.33;34.17;;;3.90;88.60;;;;;;4958526;28;20229;-77
2021/01/22 07:45:15;;;;;;;78.30;37.03;;;4.00;88.50;;;;;;4966046;28;20227;-79
2021/01/22 07:47:43;;;;;;;72.87;35.43;;;4.00;88.30;;;;;;4955327;28;20205;-77
2021/01/22 07:50:17;;;;;;;69.50;33.40;;;4.00;87.70;;;;;;4952095;28;20269;-78
2021/01/22 07:52:45;;;;;;;60.47;33.17;;;4.10;87.50;;;;;;4951384;28;20190;-79
2021/01/22 07:55:19;;;;;;;65.10;32.07;;;4.10;87.50;;;;;;4969101;28;20188;-79
2021/01/22 07:57:47;;;;;;;70.30;31.97;;;4.10;87.40;;;;;;4962101;28;20741;-78
2021/01/22 08:00:14;;;;;;;63.93;34.67;;;4.20;87.70;;;;;;4962121;28;20190;-77
2021/01/22 08:02:59;;;;;;;73.37;35.13;;;4.10;87.60;;;;;;4969514;28;20225;-77
2021/01/22 08:05:31;;;;;;;71.80;34.33;;;4.20;87.50;;;;;;4968926;28;20190;-77
2021/01/22 08:07:57;;;;;;;72.90;35.03;;;4.20;87.80;;;;;;4968996;28;20202;-77
2021/01/22 08:10:30;;;;;;;67.03;34.87;;;4.20;87.70;;;;;;4968995;28;20189;-80
2021/01/22 08:12:58;;;;;;;71.40;36.27;;;4.30;87.40;;;;;;4968563;28;20178;-78
2021/01/22 08:15:25;;;;;;;76.50;37.33;;;4.40;87.40;;;;;;4963879;28;20198;-79
2021/01/22 08:17:50;;;;;;;79.30;37.83;;;4.40;87.00;;;;;;4969124;28;20197;-78
2021/01/22 08:20:18;;;;;;;78.10;36.10;;;4.40;87.30;;;;;;4951260;28;20190;-77
2021/01/22 08:22:57;;;;;;;67.80;36.40;;;4.40;87.40;;;;;;4969047;28;20193;-78
2021/01/22 08:25:38;;;;;;;71.97;35.47;;;4.50;86.70;;;;;;4968690;28;20264;-78
2021/01/22 08:28:06;;;;;;;78.13;36.43;;;4.50;86.80;;;;;;4951896;28;21133;-77
2021/01/22 08:30:32;;;;;;;72.73;36.93;;;4.60;86.80;;;;;;4951346;28;20764;-78
2021/01/22 08:32:58;;;;;;;78.50;37.47;;;4.60;87.10;;;;;;4969318;28;20182;-78
2021/01/22 08:35:25;;;;;;;71.80;35.50;;;4.70;86.60;;;;;;4951545;28;20186;-78
2021/01/22 08:37:52;;;;;;;67.63;34.80;;;4.70;86.40;;;;;;4951502;28;20190;-78
2021/01/22 08:40:19;;;;;;;75.83;36.70;;;4.80;86.40;;;;;;4951162;28;20245;-77
2021/01/22 08:43:02;;;;;;;70.93;36.70;;;4.90;86.60;;;;;;4954401;28;20194;-77
2021/01/22 08:45:28;;;;;;;52.60;27.33;;;4.90;85.50;;;;;;4971940;28;20192;-78
2021/01/22 08:47:55;;;;;;;57.47;30.03;;;5.00;85.90;;;;;;4971495;28;20202;-76
2021/01/22 08:50:21;;;;;;;56.00;27.97;;;5.00;86.10;;;;;;4971451;28;20174;-78
2021/01/22 08:53:02;;;;;;;52.47;25.47;;;5.10;85.90;;;;;;4952747;28;20580;-76
2021/01/22 08:55:28;;;;;;;34.80;21.53;;;5.10;85.90;;;;;;4955020;28;20219;-76
2021/01/22 08:58:10;;;;;;;36.27;21.90;;;5.20;85.80;;;;;;4954127;28;20249;-76
2021/01/22 09:00:37;;;;;;;40.10;20.90;;;5.30;86.10;;;;;;4960534;28;20174;-79
2021/01/22 09:03:03;;;;;;;30.97;18.27;;;5.40;85.90;;;;;;4956022;28;20190;-83
2021/01/22 09:05:29;;;;;;;33.70;18.93;;;5.50;85.70;;;;;;4970390;28;20190;-76
2021/01/22 09:08:09;;;;;;;33.50;18.57;;;5.70;85.50;;;;;;4972514;28;20284;-75
2021/01/22 09:10:46;;;;;;;28.10;17.03;;;5.90;85.30;;;;;;4953124;28;20994;-73
2021/01/22 09:13:27;;;;;;;25.87;16.40;;;6.00;85.10;;;;;;4957992;28;20218;-78
2021/01/22 09:16:04;;;;;;;27.90;16.17;;;6.20;84.60;;;;;;4963805;28;20182;-76
2021/01/22 09:18:29;;;;;;;21.40;14.73;;;6.30;83.90;;;;;;4970467;28;20193;-77
2021/01/22 09:21:03;;;;;;;26.80;15.87;;;6.50;83.30;;;;;;4970356;28;20192;-75
2021/01/22 09:23:29;;;;;;;26.30;15.07;;;6.60;83.00;;;;;;4952755;28;20277;-77
2021/01/22 09:26:00;;;;;;;27.10;15.73;;;6.80;83.60;;;;;;4970091;28;20182;-76
2021/01/22 09:28:26;;;;;;;25.97;15.97;;;7.00;83.20;;;;;;4970271;28;20233;-76
2021/01/22 09:30:52;;;;;;;25.20;15.13;;;7.20;83.10;;;;;;4972493;28;20170;-76
2021/01/22 09:33:18;;;;;;;20.50;13.60;;;7.30;81.80;;;;;;4971360;28;20185;-76
2021/01/22 09:35:44;;;;;;;21.30;12.53;;;7.40;81.40;;;;;;4953069;28;20616;-77
2021/01/22 09:38:10;;;;;;;18.93;12.80;;;7.50;81.60;;;;;;4972050;28;20746;-76
2021/01/22 09:40:36;;;;;;;19.10;11.63;;;7.50;81.50;;;;;;4968660;28;20218;-74
2021/01/22 09:43:02;;;;;;;23.90;13.07;;;7.60;80.90;;;;;;4969753;28;20233;-79
2021/01/22 09:45:28;;;;;;;19.03;12.33;;;7.70;81.30;;;;;;4951630;28;20628;-74
2021/01/22 09:47:54;;;;;;;19.30;12.17;;;7.80;81.00;;;;;;4967134;28;20216;-76
2021/01/22 09:50:19;;;;;;;19.93;11.90;;;7.90;81.20;;;;;;4959755;28;20209;-75
2021/01/22 09:52:45;;;;;;;21.23;12.07;;;8.00;79.70;;;;;;4967813;28;20182;-77
2021/01/22 09:55:16;;;;;;;20.47;10.63;;;8.00;79.80;;;;;;4968335;28;20190;-76
2021/01/22 09:57:43;;;;;;;16.90;11.83;;;8.00;80.00;;;;;;4951035;28;20686;-77
2021/01/22 10:00:10;;;;;;;18.17;11.53;;;8.00;80.80;;;;;;4950692;28;20190;-78
2021/01/22 10:02:36;;;;;;;14.03;11.00;;;8.10;79.40;;;;;;4948168;28;20248;-76
2021/01/22 10:05:02;;;;;;;18.10;10.87;;;8.10;79.00;;;;;;4951660;28;20194;-76
2021/01/22 10:07:28;;;;;;;17.07;10.70;;;8.20;80.00;;;;;;4969210;28;20213;-78
2021/01/22 10:09:54;;;;;;;13.67;10.47;;;8.30;79.20;;;;;;4953991;28;20544;-80
2021/01/22 10:12:20;;;;;;;17.93;10.80;;;8.40;78.30;;;;;;4969187;28;20278;-78
2021/01/22 10:14:46;;;;;;;16.33;11.37;;;8.40;78.90;;;;;;4947750;28;20185;-77
2021/01/22 10:17:12;;;;;;;14.43;10.90;;;8.50;79.60;;;;;;4968729;28;20190;-79
2021/01/22 10:19:38;;;;;;;17.27;10.40;;;8.60;80.20;;;;;;4970212;28;20256;-77
2021/01/22 10:22:04;;;;;;;29.07;11.80;;;8.80;79.10;;;;;;4953721;28;20273;-78
2021/01/22 10:24:30;;;;;;;19.30;12.53;;;8.90;78.60;;;;;;4953133;28;20202;-79
2021/01/22 10:26:56;;;;;;;27.63;14.87;;;9.00;78.60;;;;;;4970240;28;20213;-78
2021/01/22 10:29:22;;;;;;;28.77;16.43;;;9.10;77.80;;;;;;4952425;28;20229;-77
2021/01/22 10:31:49;;;;;;;28.40;15.70;;;9.30;77.40;;;;;;4970195;28;20622;-78
2021/01/22 10:34:15;;;;;;;31.80;18.57;;;9.50;78.40;;;;;;4968178;28;20187;-77
2021/01/22 10:36:41;;;;;;;39.60;21.57;;;9.80;78.80;;;;;;4970731;28;21046;-77
2021/01/22 10:39:07;;;;;;;41.50;22.52;;;10.40;76.60;;;;;;4953440;28;20182;-78
2021/01/22 10:41:33;;;;;;;42.13;23.23;;;10.80;74.70;;;;;;4970459;28;20182;-79
2021/01/22 10:43:59;;;;;;;40.45;24.48;;;11.20;74.60;;;;;;4968653;28;20666;-77
2021/01/22 10:46:26;;;;;;;50.15;27.20;;;11.70;74.00;;;;;;4952544;28;20241;-79
2021/01/22 10:48:51;;;;;;;51.63;28.17;;;12.20;73.10;;;;;;4952305;28;20637;-78
2021/01/22 10:51:17;;;;;;;60.47;31.30;;;12.80;71.70;;;;;;4963704;28;20214;-78
2021/01/22 10:53:43;;;;;;;67.68;34.67;;;13.40;70.50;;;;;;4964974;28;20244;-79
2021/01/22 10:56:08;;;;;;;65.18;37.90;;;13.90;70.10;;;;;;4969009;28;20198;-79
2021/01/22 10:58:34;;;;;;;75.60;42.55;;;14.20;69.00;;;;;;4969532;28;20578;-77
2021/01/22 11:01:00;;;;;;;96.10;47.72;;;14.40;66.50;;;;;;4960254;28;20174;-77
2021/01/22 11:03:30;;;;;;;115.30;56.63;;;14.50;67.20;;;;;;4969996;28;20190;-77
2021/01/22 11:05:56;;;;;;;118.20;56.33;;;14.40;65.80;;;;;;4951836;28;20616;-78
2021/01/22 11:08:22;;;;;;;117.55;57.00;;;14.10;66.40;;;;;;4970066;28;20186;-78
2021/01/22 11:10:47;;;;;;;105.97;54.25;;;13.90;67.50;;;;;;4969740;28;20235;-77
2021/01/22 11:13:13;;;;;;;100.28;50.03;;;14.00;68.60;;;;;;4968107;28;20217;-78
2021/01/22 11:15:39;;;;;;;94.32;51.03;;;14.20;67.50;;;;;;4963137;28;20175;-77
2021/01/22 11:18:04;;;;;;;97.43;49.40;;;14.40;66.70;;;;;;4967350;28;20197;-77
2021/01/22 11:20:30;;;;;;;98.38;48.28;;;14.50;66.70;;;;;;4969887;28;20205;-78
2021/01/22 11:22:56;;;;;;;94.80;46.92;;;14.50;67.60;;;;;;4952879;28;20690;-79
2021/01/22 11:25:22;;;;;;;88.10;47.30;;;14.60;64.80;;;;;;4970055;28;20217;-78
2021/01/22 11:27:48;;;;;;;91.95;46.05;;;14.60;67.10;;;;;;4968094;28;20202;-77
2021/01/22 11:30:15;;;;;;;85.03;46.45;;;14.70;66.80;;;;;;4943543;28;20668;-78
2021/01/22 11:32:41;;;;;;;93.85;47.63;;;14.80;65.60;;;;;;4952368;28;20990;-77
2021/01/22 11:35:12;;;;;;;90.05;45.45;;;14.70;66.60;;;;;;4967154;28;20194;-79
2021/01/22 11:37:44;;;;;;;73.88;40.33;;;14.60;66.40;;;;;;4953452;28;20174;-78
2021/01/22 11:40:11;;;;;;;65.05;35.47;;;14.00;64.80;;;;;;4960482;28;20271;-79
2021/01/22 11:42:37;;;;;;;63.28;34.38;;;13.70;66.80;;;;;;4961082;28;20179;-78
2021/01/22 11:45:05;;;;;;;66.07;34.03;;;13.60;66.70;;;;;;4953440;28;20191;-78
2021/01/22 11:47:31;;;;;;;59.97;36.22;;;13.50;67.50;;;;;;4954828;28;20194;-78
2021/01/22 11:49:56;;;;;;;59.17;34.38;;;13.50;67.40;;;;;;4970881;28;20252;-80
2021/01/22 11:52:22;;;;;;;62.22;35.15;;;13.50;68.40;;;;;;4952952;28;20183;-79
2021/01/22 11:54:48;;;;;;;63.92;34.47;;;13.50;68.20;;;;;;4968509;28;20763;-78
2021/01/22 11:57:14;;;;;;;67.35;38.47;;;13.50;68.00;;;;;;4968333;28;20183;-79
2021/01/22 11:59:39;;;;;;;71.82;39.70;;;13.60;67.80;;;;;;4951347;28;20190;-79
2021/01/22 12:02:06;;;;;;;76.90;38.35;;;13.70;67.50;;;;;;4937845;29;20194;-79
2021/01/22 12:04:31;;;;;;;63.42;37.20;;;13.70;67.40;;;;;;4933725;28;20183;-78
2021/01/22 12:06:57;;;;;;;69.47;37.50;;;13.80;67.40;;;;;;4970660;28;20252;-77
2021/01/22 12:09:23;;;;;;;61.00;36.38;;;13.90;67.70;;;;;;4969716;28;20197;-79
2021/01/22 12:11:48;;;;;;;72.97;34.63;;;14.10;67.40;;;;;;4969897;28;20695;-80
2021/01/22 12:14:14;;;;;;;60.25;33.80;;;14.30;67.30;;;;;;4969290;28;20177;-78
2021/01/22 12:16:40;;;;;;;62.40;35.35;;;14.50;66.40;;;;;;4964408;28;20296;-79
2021/01/22 12:19:06;;;;;;;56.35;33.53;;;14.80;65.90;;;;;;4967895;28;20316;-79
2021/01/22 12:21:31;;;;;;;58.10;32.72;;;15.10;66.10;;;;;;4949488;29;20259;-78
2021/01/22 12:23:57;;;;;;;46.17;27.98;;;15.50;64.30;;;;;;4945838;28;20714;-78
2021/01/22 12:26:23;;;;;;;36.08;21.85;;;15.90;64.60;;;;;;4958955;28;20239;-76
2021/01/22 12:28:49;;;;;;;41.63;22.75;;;16.30;64.20;;;;;;4957064;28;20225;-77
2021/01/22 12:31:16;;;;;;;39.95;23.70;;;16.70;62.80;;;;;;4964940;28;20241;-74
2021/01/22 12:33:42;;;;;;;47.38;26.58;;;17.00;62.40;;;;;;4956889;28;20248;-73
2021/01/22 12:36:08;;;;;;;48.40;28.02;;;17.10;61.80;;;;;;4955903;28;20190;-73
2021/01/22 12:38:34;;;;;;;58.35;29.73;;;17.20;63.00;;;;;;4949093;28;20585;-73
2021/01/22 12:41:00;;;;;;;51.58;27.92;;;17.40;61.30;;;;;;4963748;28;20643;-74